sensor_id;sensor_type;location;lat;lon;timestamp;temperature;humidity
7159;DHT22;3621;52.374;13.098;2022-08-23T00:01:44;21.90;91.30
7159;DHT22;3621;52.374;13.098;2022-08-23T00:04:15;21.90;91.50
7159;DHT22;3621;52.374;13.098;2022-08-23T00:06:43;21.90;91.60
7159;DHT22;3621;52.374;13.098;2022-08-23T00:09:11;21.80;91.80
7159;DHT22;3621;52.374;13.098;2022-08-23T00:11:40;21.80;92.00
7159;DHT22;3621;52.374;13.098;2022-08-23T00:14:11;21.90;92.20
7159;DHT22;3621;52.374;13.098;2022-08-23T00:16:39;21.90;92.30
7159;DHT22;3621;52.374;13.098;2022-08-23T00:19:09;21.90;92.40
7159;DHT22;3621;52.374;13.098;2022-08-23T00:21:36;21.90;92.60
7159;DHT22;3621;52.374;13.098;2022-08-23T00:24:04;21.80;92.80
7159;DHT22;3621;52.374;13.098;2022-08-23T00:26:55;21.80;93.10
7159;DHT22;3621;52.374;13.098;2022-08-23T00:29:30;21.80;93.30
7159;DHT22;3621;52.374;13.098;2022-08-23T00:31:58;21.70;93.50
7159;DHT22;3621;52.374;13.098;2022-08-23T00:34:25;21.70;93.80
7159;DHT22;3621;52.374;13.098;2022-08-23T00:36:52;21.60;94.00
7159;DHT22;3621;52.374;13.098;2022-08-23T00:39:20;21.60;94.10
7159;DHT22;3621;52.374;13.098;2022-08-23T00:41:48;21.60;94.20
7159;DHT22;3621;52.374;13.098;2022-08-23T00:44:19;21.60;94.30
7159;DHT22;3621;52.374;13.098;2022-08-23T00:47:07;21.70;94.50
7159;DHT22;3621;52.374;13.098;2022-08-23T00:49:56;21.70;94.60
7159;DHT22;3621;52.374;13.098;2022-08-23T00:52:29;21.70;94.70
7159;DHT22;3621;52.374;13.098;2022-08-23T00:54:58;21.70;94.70
7159;DHT22;3621;52.374;13.098;2022-08-23T00:57:26;21.70;94.90
7159;DHT22;3621;52.374;13.098;2022-08-23T00:59:53;21.60;95.00
7159;DHT22;3621;52.374;13.098;2022-08-23T01:02:22;21.70;95.20
7159;DHT22;3621;52.374;13.098;2022-08-23T01:04:53;21.60;95.20
7159;DHT22;3621;52.374;13.098;2022-08-23T01:07:30;21.60;95.30
7159;DHT22;3621;52.374;13.098;2022-08-23T01:10:04;21.60;95.40
7159;DHT22;3621;52.374;13.098;2022-08-23T01:12:37;21.60;95.60
7159;DHT22;3621;52.374;13.098;2022-08-23T01:15:10;21.60;95.70
7159;DHT22;3621;52.374;13.098;2022-08-23T01:17:44;21.60;95.80
7159;DHT22;3621;52.374;13.098;2022-08-23T01:20:15;21.60;96.10
7159;DHT22;3621;52.374;13.098;2022-08-23T01:22:48;21.60;96.00
7159;DHT22;3621;52.374;13.098;2022-08-23T01:25:19;21.60;96.20
7159;DHT22;3621;52.374;13.098;2022-08-23T01:27:47;21.60;96.30
7159;DHT22;3621;52.374;13.098;2022-08-23T01:30:18;21.60;96.40
7159;DHT22;3621;52.374;13.098;2022-08-23T01:32:48;21.60;96.50
7159;DHT22;3621;52.374;13.098;2022-08-23T01:35:17;21.60;96.60
7159;DHT22;3621;52.374;13.098;2022-08-23T01:37:45;21.60;96.70
7159;DHT22;3621;52.374;13.098;2022-08-23T01:40:12;21.60;96.80
7159;DHT22;3621;52.374;13.098;2022-08-23T01:42:41;21.60;97.00
7159;DHT22;3621;52.374;13.098;2022-08-23T01:45:09;21.60;97.10
7159;DHT22;3621;52.374;13.098;2022-08-23T01:47:37;21.50;97.20
7159;DHT22;3621;52.374;13.098;2022-08-23T01:50:06;21.50;97.30
7159;DHT22;3621;52.374;13.098;2022-08-23T01:52:34;21.50;97.40
7159;DHT22;3621;52.374;13.098;2022-08-23T01:55:01;21.50;97.50
7159;DHT22;3621;52.374;13.098;2022-08-23T01:57:28;21.50;97.50
7159;DHT22;3621;52.374;13.098;2022-08-23T01:59:57;21.50;97.60
7159;DHT22;3621;52.374;13.098;2022-08-23T02:02:24;21.50;97.70
7159;DHT22;3621;52.374;13.098;2022-08-23T02:04:51;21.50;97.80
7159;DHT22;3621;52.374;13.098;2022-08-23T02:07:18;21.50;97.90
7159;DHT22;3621;52.374;13.098;2022-08-23T02:09:45;21.40;97.90
7159;DHT22;3621;52.374;13.098;2022-08-23T02:12:13;21.40;98.00
7159;DHT22;3621;52.374;13.098;2022-08-23T02:14:40;21.40;98.10
7159;DHT22;3621;52.374;13.098;2022-08-23T02:17:09;21.40;98.20
7159;DHT22;3621;52.374;13.098;2022-08-23T02:19:37;21.40;98.30
7159;DHT22;3621;52.374;13.098;2022-08-23T02:22:05;21.40;98.30
7159;DHT22;3621;52.374;13.098;2022-08-23T02:24:33;21.40;98.40
7159;DHT22;3621;52.374;13.098;2022-08-23T02:27:02;21.40;98.50
7159;DHT22;3621;52.374;13.098;2022-08-23T02:29:30;21.40;98.50
7159;DHT22;3621;52.374;13.098;2022-08-23T02:32:00;21.40;98.50
7159;DHT22;3621;52.374;13.098;2022-08-23T02:34:30;21.40;98.50
7159;DHT22;3621;52.374;13.098;2022-08-23T02:36:58;21.40;98.50
7159;DHT22;3621;52.374;13.098;2022-08-23T02:39:25;21.40;98.50
7159;DHT22;3621;52.374;13.098;2022-08-23T02:41:52;21.30;98.50
7159;DHT22;3621;52.374;13.098;2022-08-23T02:44:20;21.30;98.50
7159;DHT22;3621;52.374;13.098;2022-08-23T02:46:47;21.30;98.50
7159;DHT22;3621;52.374;13.098;2022-08-23T02:49:15;21.30;98.40
7159;DHT22;3621;52.374;13.098;2022-08-23T02:51:43;21.20;98.40
7159;DHT22;3621;52.374;13.098;2022-08-23T02:54:10;21.20;98.40
7159;DHT22;3621;52.374;13.098;2022-08-23T02:56:37;21.20;98.50
7159;DHT22;3621;52.374;13.098;2022-08-23T02:59:05;21.20;98.50
7159;DHT22;3621;52.374;13.098;2022-08-23T03:01:34;21.20;98.50
7159;DHT22;3621;52.374;13.098;2022-08-23T03:04:02;21.20;98.50
7159;DHT22;3621;52.374;13.098;2022-08-23T03:06:29;21.20;98.50
7159;DHT22;3621;52.374;13.098;2022-08-23T03:08:58;21.20;98.50
7159;DHT22;3621;52.374;13.098;2022-08-23T03:11:25;21.20;98.50
7159;DHT22;3621;52.374;13.098;2022-08-23T03:13:53;21.20;98.50
7159;DHT22;3621;52.374;13.098;2022-08-23T03:16:21;21.20;98.50
7159;DHT22;3621;52.374;13.098;2022-08-23T03:18:49;21.20;98.40
7159;DHT22;3621;52.374;13.098;2022-08-23T03:21:17;21.20;98.40
7159;DHT22;3621;52.374;13.098;2022-08-23T03:23:44;21.10;98.50
7159;DHT22;3621;52.374;13.098;2022-08-23T03:26:13;21.10;98.50
7159;DHT22;3621;52.374;13.098;2022-08-23T03:28:41;21.10;98.60
7159;DHT22;3621;52.374;13.098;2022-08-23T03:31:09;21.10;98.70
7159;DHT22;3621;52.374;13.098;2022-08-23T03:33:37;21.10;98.80
7159;DHT22;3621;52.374;13.098;2022-08-23T03:36:06;21.10;98.90
7159;DHT22;3621;52.374;13.098;2022-08-23T03:38:34;21.10;98.90
7159;DHT22;3621;52.374;13.098;2022-08-23T03:41:02;21.10;98.90
7159;DHT22;3621;52.374;13.098;2022-08-23T03:43:31;21.10;99.00
7159;DHT22;3621;52.374;13.098;2022-08-23T03:45:58;21.10;99.00
7159;DHT22;3621;52.374;13.098;2022-08-23T03:48:25;21.10;99.00
7159;DHT22;3621;52.374;13.098;2022-08-23T03:50:51;21.10;99.10
7159;DHT22;3621;52.374;13.098;2022-08-23T03:53:19;21.10;99.10
7159;DHT22;3621;52.374;13.098;2022-08-23T03:55:50;21.00;99.20
7159;DHT22;3621;52.374;13.098;2022-08-23T03:58:17;21.00;99.30
7159;DHT22;3621;52.374;13.098;2022-08-23T04:00:47;20.90;99.40
7159;DHT22;3621;52.374;13.098;2022-08-23T04:03:14;20.90;99.40
7159;DHT22;3621;52.374;13.098;2022-08-23T04:05:41;20.90;99.40
7159;DHT22;3621;52.374;13.098;2022-08-23T04:08:08;20.90;99.50
7159;DHT22;3621;52.374;13.098;2022-08-23T04:10:35;20.90;99.60
7159;DHT22;3621;52.374;13.098;2022-08-23T04:13:04;20.90;99.70
7159;DHT22;3621;52.374;13.098;2022-08-23T04:15:31;20.80;99.80
7159;DHT22;3621;52.374;13.098;2022-08-23T04:17:59;20.80;99.80
7159;DHT22;3621;52.374;13.098;2022-08-23T04:20:27;20.80;99.90
7159;DHT22;3621;52.374;13.098;2022-08-23T04:22:56;20.80;99.90
7159;DHT22;3621;52.374;13.098;2022-08-23T04:25:23;20.80;99.90
7159;DHT22;3621;52.374;13.098;2022-08-23T04:27:50;20.80;99.90
7159;DHT22;3621;52.374;13.098;2022-08-23T04:30:17;20.80;99.90
7159;DHT22;3621;52.374;13.098;2022-08-23T04:32:45;20.80;99.90
7159;DHT22;3621;52.374;13.098;2022-08-23T04:35:14;20.80;99.90
7159;DHT22;3621;52.374;13.098;2022-08-23T04:37:41;20.80;99.90
7159;DHT22;3621;52.374;13.098;2022-08-23T04:40:10;20.80;99.90
7159;DHT22;3621;52.374;13.098;2022-08-23T04:42:55;20.80;99.90
7159;DHT22;3621;52.374;13.098;2022-08-23T04:45:22;20.80;99.90
7159;DHT22;3621;52.374;13.098;2022-08-23T04:47:49;20.80;99.90
7159;DHT22;3621;52.374;13.098;2022-08-23T04:50:17;20.70;99.90
7159;DHT22;3621;52.374;13.098;2022-08-23T04:52:44;20.70;99.90
7159;DHT22;3621;52.374;13.098;2022-08-23T04:55:11;20.70;99.90
7159;DHT22;3621;52.374;13.098;2022-08-23T04:57:38;20.70;99.90
7159;DHT22;3621;52.374;13.098;2022-08-23T05:00:09;20.70;99.90
7159;DHT22;3621;52.374;13.098;2022-08-23T05:02:37;20.70;99.90
7159;DHT22;3621;52.374;13.098;2022-08-23T05:05:05;20.70;99.90
7159;DHT22;3621;52.374;13.098;2022-08-23T05:07:33;20.70;99.90
7159;DHT22;3621;52.374;13.098;2022-08-23T05:10:00;20.70;99.90
7159;DHT22;3621;52.374;13.098;2022-08-23T05:12:27;20.70;99.90
7159;DHT22;3621;52.374;13.098;2022-08-23T05:14:55;20.70;99.90
7159;DHT22;3621;52.374;13.098;2022-08-23T05:17:22;20.70;99.90
7159;DHT22;3621;52.374;13.098;2022-08-23T05:19:49;20.70;99.90
7159;DHT22;3621;52.374;13.098;2022-08-23T05:22:16;20.70;99.90
7159;DHT22;3621;52.374;13.098;2022-08-23T05:24:44;20.70;99.90
7159;DHT22;3621;52.374;13.098;2022-08-23T05:27:11;20.70;99.90
7159;DHT22;3621;52.374;13.098;2022-08-23T05:29:38;20.80;99.90
7159;DHT22;3621;52.374;13.098;2022-08-23T05:32:05;20.80;99.90
7159;DHT22;3621;52.374;13.098;2022-08-23T05:34:32;20.80;99.90
7159;DHT22;3621;52.374;13.098;2022-08-23T05:36:59;20.80;99.90
7159;DHT22;3621;52.374;13.098;2022-08-23T05:39:26;20.80;99.90
7159;DHT22;3621;52.374;13.098;2022-08-23T05:41:54;20.80;99.90
7159;DHT22;3621;52.374;13.098;2022-08-23T05:44:21;20.90;99.90
7159;DHT22;3621;52.374;13.098;2022-08-23T05:46:48;20.90;99.90
7159;DHT22;3621;52.374;13.098;2022-08-23T05:49:15;21.00;99.90
7159;DHT22;3621;52.374;13.098;2022-08-23T05:51:42;21.00;99.90
7159;DHT22;3621;52.374;13.098;2022-08-23T05:54:09;21.10;99.90
7159;DHT22;3621;52.374;13.098;2022-08-23T05:56:37;21.10;99.90
7159;DHT22;3621;52.374;13.098;2022-08-23T05:59:09;21.10;99.90
7159;DHT22;3621;52.374;13.098;2022-08-23T06:01:37;21.20;99.90
7159;DHT22;3621;52.374;13.098;2022-08-23T06:04:07;21.20;99.90
7159;DHT22;3621;52.374;13.098;2022-08-23T06:06:34;21.20;99.90
7159;DHT22;3621;52.374;13.098;2022-08-23T06:09:02;21.30;99.90
7159;DHT22;3621;52.374;13.098;2022-08-23T06:11:30;21.30;99.90
7159;DHT22;3621;52.374;13.098;2022-08-23T06:13:59;21.30;99.90
7159;DHT22;3621;52.374;13.098;2022-08-23T06:16:29;21.30;99.90
7159;DHT22;3621;52.374;13.098;2022-08-23T06:18:58;21.30;99.90
7159;DHT22;3621;52.374;13.098;2022-08-23T06:21:27;21.30;99.90
7159;DHT22;3621;52.374;13.098;2022-08-23T06:23:55;21.40;99.90
7159;DHT22;3621;52.374;13.098;2022-08-23T06:26:24;21.40;99.90
7159;DHT22;3621;52.374;13.098;2022-08-23T06:28:54;21.40;99.90
7159;DHT22;3621;52.374;13.098;2022-08-23T06:31:23;21.50;99.90
7159;DHT22;3621;52.374;13.098;2022-08-23T06:34:06;21.50;99.90
7159;DHT22;3621;52.374;13.098;2022-08-23T06:36:33;21.60;99.90
7159;DHT22;3621;52.374;13.098;2022-08-23T06:39:02;21.60;99.90
7159;DHT22;3621;52.374;13.098;2022-08-23T06:41:29;21.60;99.90
7159;DHT22;3621;52.374;13.098;2022-08-23T06:43:55;21.70;99.90
7159;DHT22;3621;52.374;13.098;2022-08-23T06:46:24;21.70;99.90
7159;DHT22;3621;52.374;13.098;2022-08-23T06:48:52;21.70;99.90
7159;DHT22;3621;52.374;13.098;2022-08-23T06:51:24;21.80;99.90
7159;DHT22;3621;52.374;13.098;2022-08-23T06:53:52;21.80;99.90
7159;DHT22;3621;52.374;13.098;2022-08-23T06:56:21;21.80;99.90
7159;DHT22;3621;52.374;13.098;2022-08-23T06:58:48;21.90;99.90
7159;DHT22;3621;52.374;13.098;2022-08-23T07:01:19;21.90;99.90
7159;DHT22;3621;52.374;13.098;2022-08-23T07:03:52;21.90;99.90
7159;DHT22;3621;52.374;13.098;2022-08-23T07:06:21;22.00;99.90
7159;DHT22;3621;52.374;13.098;2022-08-23T07:08:49;22.00;99.90
7159;DHT22;3621;52.374;13.098;2022-08-23T07:11:16;22.10;99.90
7159;DHT22;3621;52.374;13.098;2022-08-23T07:13:44;22.10;99.90
7159;DHT22;3621;52.374;13.098;2022-08-23T07:16:12;22.20;99.90
7159;DHT22;3621;52.374;13.098;2022-08-23T07:18:40;22.30;99.90
7159;DHT22;3621;52.374;13.098;2022-08-23T07:21:06;22.30;99.90
7159;DHT22;3621;52.374;13.098;2022-08-23T07:23:35;22.40;99.90
7159;DHT22;3621;52.374;13.098;2022-08-23T07:26:06;22.40;99.80
7159;DHT22;3621;52.374;13.098;2022-08-23T07:28:33;22.40;99.70
7159;DHT22;3621;52.374;13.098;2022-08-23T07:31:06;22.50;99.60
7159;DHT22;3621;52.374;13.098;2022-08-23T07:33:34;22.50;99.60
7159;DHT22;3621;52.374;13.098;2022-08-23T07:36:02;22.50;99.50
7159;DHT22;3621;52.374;13.098;2022-08-23T07:38:29;22.50;99.40
7159;DHT22;3621;52.374;13.098;2022-08-23T07:40:58;22.50;99.30
7159;DHT22;3621;52.374;13.098;2022-08-23T07:43:24;22.60;99.20
7159;DHT22;3621;52.374;13.098;2022-08-23T07:45:51;22.60;99.10
7159;DHT22;3621;52.374;13.098;2022-08-23T07:48:18;22.70;99.00
7159;DHT22;3621;52.374;13.098;2022-08-23T07:50:51;22.70;98.80
7159;DHT22;3621;52.374;13.098;2022-08-23T07:53:18;22.80;98.60
7159;DHT22;3621;52.374;13.098;2022-08-23T07:55:45;22.80;98.40
7159;DHT22;3621;52.374;13.098;2022-08-23T07:58:14;22.90;98.20
7159;DHT22;3621;52.374;13.098;2022-08-23T08:00:41;22.90;98.20
7159;DHT22;3621;52.374;13.098;2022-08-23T08:03:08;23.00;98.30
7159;DHT22;3621;52.374;13.098;2022-08-23T08:05:36;23.10;98.30
7159;DHT22;3621;52.374;13.098;2022-08-23T08:08:04;23.10;98.10
7159;DHT22;3621;52.374;13.098;2022-08-23T08:10:31;23.10;97.90
7159;DHT22;3621;52.374;13.098;2022-08-23T08:13:00;23.10;97.50
7159;DHT22;3621;52.374;13.098;2022-08-23T08:15:28;23.20;97.50
7159;DHT22;3621;52.374;13.098;2022-08-23T08:17:55;23.20;97.40
7159;DHT22;3621;52.374;13.098;2022-08-23T08:20:22;23.30;97.60
7159;DHT22;3621;52.374;13.098;2022-08-23T08:22:51;23.30;97.10
7159;DHT22;3621;52.374;13.098;2022-08-23T08:25:18;23.40;96.90
7159;DHT22;3621;52.374;13.098;2022-08-23T08:27:46;23.40;96.80
7159;DHT22;3621;52.374;13.098;2022-08-23T08:30:13;23.40;96.60
7159;DHT22;3621;52.374;13.098;2022-08-23T08:32:42;23.50;96.50
7159;DHT22;3621;52.374;13.098;2022-08-23T08:35:09;23.50;96.20
7159;DHT22;3621;52.374;13.098;2022-08-23T08:37:36;23.60;96.10
7159;DHT22;3621;52.374;13.098;2022-08-23T08:40:05;23.60;96.00
7159;DHT22;3621;52.374;13.098;2022-08-23T08:42:53;23.70;95.90
7159;DHT22;3621;52.374;13.098;2022-08-23T08:45:28;23.80;95.60
7159;DHT22;3621;52.374;13.098;2022-08-23T08:48:02;23.90;95.50
7159;DHT22;3621;52.374;13.098;2022-08-23T08:50:33;24.10;95.00
7159;DHT22;3621;52.374;13.098;2022-08-23T08:53:06;24.20;94.60
7159;DHT22;3621;52.374;13.098;2022-08-23T08:55:38;24.40;94.40
7159;DHT22;3621;52.374;13.098;2022-08-23T08:58:12;24.60;94.20
7159;DHT22;3621;52.374;13.098;2022-08-23T09:00:42;25.00;94.00
7159;DHT22;3621;52.374;13.098;2022-08-23T09:03:13;25.40;93.50
7159;DHT22;3621;52.374;13.098;2022-08-23T09:05:48;25.70;93.20
7159;DHT22;3621;52.374;13.098;2022-08-23T09:08:30;26.00;92.10
7159;DHT22;3621;52.374;13.098;2022-08-23T09:11:03;26.40;91.50
7159;DHT22;3621;52.374;13.098;2022-08-23T09:14:08;26.70;90.90
7159;DHT22;3621;52.374;13.098;2022-08-23T09:16:49;27.10;89.60
7159;DHT22;3621;52.374;13.098;2022-08-23T09:19:20;27.50;87.60
7159;DHT22;3621;52.374;13.098;2022-08-23T09:21:54;27.90;85.80
7159;DHT22;3621;52.374;13.098;2022-08-23T09:24:22;28.10;83.20
7159;DHT22;3621;52.374;13.098;2022-08-23T09:26:49;28.30;80.90
7159;DHT22;3621;52.374;13.098;2022-08-23T09:29:20;28.30;79.90
7159;DHT22;3621;52.374;13.098;2022-08-23T09:31:50;28.30;77.90
7159;DHT22;3621;52.374;13.098;2022-08-23T09:34:22;28.40;76.80
7159;DHT22;3621;52.374;13.098;2022-08-23T09:37:05;28.30;74.80
7159;DHT22;3621;52.374;13.098;2022-08-23T09:39:38;28.20;74.10
7159;DHT22;3621;52.374;13.098;2022-08-23T09:42:08;28.10;74.40
7159;DHT22;3621;52.374;13.098;2022-08-23T09:44:38;28.10;74.30
7159;DHT22;3621;52.374;13.098;2022-08-23T09:47:09;28.00;73.90
7159;DHT22;3621;52.374;13.098;2022-08-23T09:49:38;27.90;73.90
7159;DHT22;3621;52.374;13.098;2022-08-23T09:52:13;27.80;74.40
7159;DHT22;3621;52.374;13.098;2022-08-23T09:54:53;27.80;73.70
7159;DHT22;3621;52.374;13.098;2022-08-23T09:57:24;27.80;74.10
7159;DHT22;3621;52.374;13.098;2022-08-23T09:59:51;27.80;74.70
7159;DHT22;3621;52.374;13.098;2022-08-23T10:02:25;27.90;74.80
7159;DHT22;3621;52.374;13.098;2022-08-23T10:05:00;27.80;74.60
7159;DHT22;3621;52.374;13.098;2022-08-23T10:07:32;27.90;73.90
7159;DHT22;3621;52.374;13.098;2022-08-23T10:10:17;27.80;72.60
7159;DHT22;3621;52.374;13.098;2022-08-23T10:12:45;27.90;72.30
7159;DHT22;3621;52.374;13.098;2022-08-23T10:15:12;27.90;71.80
7159;DHT22;3621;52.374;13.098;2022-08-23T10:17:47;28.00;72.00
7159;DHT22;3621;52.374;13.098;2022-08-23T10:20:28;28.00;71.90
7159;DHT22;3621;52.374;13.098;2022-08-23T10:23:05;28.10;71.80
7159;DHT22;3621;52.374;13.098;2022-08-23T10:25:40;28.00;72.00
7159;DHT22;3621;52.374;13.098;2022-08-23T10:28:14;28.10;71.60
7159;DHT22;3621;52.374;13.098;2022-08-23T10:31:06;28.00;71.70
7159;DHT22;3621;52.374;13.098;2022-08-23T10:33:42;28.00;71.90
7159;DHT22;3621;52.374;13.098;2022-08-23T10:36:16;28.00;72.10
7159;DHT22;3621;52.374;13.098;2022-08-23T10:38:45;28.10;71.90
7159;DHT22;3621;52.374;13.098;2022-08-23T10:41:28;28.10;72.70
7159;DHT22;3621;52.374;13.098;2022-08-23T10:44:13;28.10;72.00
7159;DHT22;3621;52.374;13.098;2022-08-23T10:46:53;28.10;72.00
7159;DHT22;3621;52.374;13.098;2022-08-23T10:49:24;28.10;71.70
7159;DHT22;3621;52.374;13.098;2022-08-23T10:51:55;28.20;71.50
7159;DHT22;3621;52.374;13.098;2022-08-23T10:54:28;28.30;70.20
7159;DHT22;3621;52.374;13.098;2022-08-23T10:57:00;28.60;70.10
7159;DHT22;3621;52.374;13.098;2022-08-23T10:59:28;29.10;68.70
7159;DHT22;3621;52.374;13.098;2022-08-23T11:02:01;29.50;67.50
7159;DHT22;3621;52.374;13.098;2022-08-23T11:04:32;30.20;65.50
7159;DHT22;3621;52.374;13.098;2022-08-23T11:07:14;30.90;63.70
7159;DHT22;3621;52.374;13.098;2022-08-23T11:09:52;32.30;61.00
7159;DHT22;3621;52.374;13.098;2022-08-23T11:12:28;34.20;57.00
7159;DHT22;3621;52.374;13.098;2022-08-23T11:15:09;36.20;51.80
7159;DHT22;3621;52.374;13.098;2022-08-23T11:17:42;38.00;47.00
7159;DHT22;3621;52.374;13.098;2022-08-23T11:29:36;40.70;38.90
7159;DHT22;3621;52.374;13.098;2022-08-23T11:32:19;40.40;38.20
7159;DHT22;3621;52.374;13.098;2022-08-23T11:34:50;40.10;38.10
7159;DHT22;3621;52.374;13.098;2022-08-23T11:37:28;40.00;37.90
7159;DHT22;3621;52.374;13.098;2022-08-23T11:40:08;40.30;36.90
7159;DHT22;3621;52.374;13.098;2022-08-23T11:42:49;40.30;36.20
7159;DHT22;3621;52.374;13.098;2022-08-23T11:45:23;40.20;35.70
7159;DHT22;3621;52.374;13.098;2022-08-23T11:48:10;40.10;35.20
7159;DHT22;3621;52.374;13.098;2022-08-23T11:53:48;40.40;36.00
7159;DHT22;3621;52.374;13.098;2022-08-23T11:56:48;40.10;35.80
7159;DHT22;3621;52.374;13.098;2022-08-23T11:59:42;39.90;35.70
7159;DHT22;3621;52.374;13.098;2022-08-23T12:02:28;40.20;36.00
7159;DHT22;3621;52.374;13.098;2022-08-23T12:04:59;40.70;35.30
7159;DHT22;3621;52.374;13.098;2022-08-23T12:07:42;41.10;34.60
7159;DHT22;3621;52.374;13.098;2022-08-23T12:10:10;41.10;33.60
7159;DHT22;3621;52.374;13.098;2022-08-23T12:12:41;40.80;33.60
7159;DHT22;3621;52.374;13.098;2022-08-23T12:15:10;40.70;33.50
7159;DHT22;3621;52.374;13.098;2022-08-23T12:20:41;40.70;33.80
7159;DHT22;3621;52.374;13.098;2022-08-23T12:23:15;40.50;34.00
7159;DHT22;3621;52.374;13.098;2022-08-23T12:25:42;40.30;33.30
7159;DHT22;3621;52.374;13.098;2022-08-23T12:28:34;39.70;34.40
7159;DHT22;3621;52.374;13.098;2022-08-23T12:31:21;39.00;35.10
7159;DHT22;3621;52.374;13.098;2022-08-23T12:34:09;38.20;35.00
7159;DHT22;3621;52.374;13.098;2022-08-23T12:36:44;37.20;35.70
7159;DHT22;3621;52.374;13.098;2022-08-23T12:39:21;36.30;37.00
7159;DHT22;3621;52.374;13.098;2022-08-23T12:41:52;35.60;38.20
7159;DHT22;3621;52.374;13.098;2022-08-23T12:44:25;35.20;39.50
7159;DHT22;3621;52.374;13.098;2022-08-23T12:46:53;34.90;40.00
7159;DHT22;3621;52.374;13.098;2022-08-23T12:49:26;34.70;40.40
7159;DHT22;3621;52.374;13.098;2022-08-23T12:51:56;34.60;40.30
7159;DHT22;3621;52.374;13.098;2022-08-23T12:54:33;34.40;41.50
7159;DHT22;3621;52.374;13.098;2022-08-23T12:57:00;34.10;41.70
7159;DHT22;3621;52.374;13.098;2022-08-23T12:59:39;33.80;41.90
7159;DHT22;3621;52.374;13.098;2022-08-23T13:02:19;33.60;42.50
7159;DHT22;3621;52.374;13.098;2022-08-23T13:04:48;33.40;43.00
7159;DHT22;3621;52.374;13.098;2022-08-23T13:07:19;33.30;43.50
7159;DHT22;3621;52.374;13.098;2022-08-23T13:09:47;33.20;43.40
7159;DHT22;3621;52.374;13.098;2022-08-23T13:12:16;33.20;43.60
7159;DHT22;3621;52.374;13.098;2022-08-23T13:14:47;33.30;43.50
7159;DHT22;3621;52.374;13.098;2022-08-23T13:17:19;33.40;43.50
7159;DHT22;3621;52.374;13.098;2022-08-23T13:19:47;33.50;43.30
7159;DHT22;3621;52.374;13.098;2022-08-23T13:22:20;33.70;42.90
7159;DHT22;3621;52.374;13.098;2022-08-23T13:25:00;33.80;42.40
7159;DHT22;3621;52.374;13.098;2022-08-23T13:27:30;33.90;42.90
7159;DHT22;3621;52.374;13.098;2022-08-23T13:30:02;34.10;42.10
7159;DHT22;3621;52.374;13.098;2022-08-23T13:32:36;34.10;42.20
7159;DHT22;3621;52.374;13.098;2022-08-23T13:35:32;34.10;41.80
7159;DHT22;3621;52.374;13.098;2022-08-23T13:38:07;34.00;41.80
7159;DHT22;3621;52.374;13.098;2022-08-23T13:40:39;33.80;42.00
7159;DHT22;3621;52.374;13.098;2022-08-23T13:43:09;33.70;41.90
7159;DHT22;3621;52.374;13.098;2022-08-23T13:45:46;33.50;41.90
7159;DHT22;3621;52.374;13.098;2022-08-23T13:48:15;33.30;42.20
7159;DHT22;3621;52.374;13.098;2022-08-23T13:50:44;33.10;42.60
7159;DHT22;3621;52.374;13.098;2022-08-23T13:53:12;33.10;43.40
7159;DHT22;3621;52.374;13.098;2022-08-23T13:55:42;33.00;43.80
7159;DHT22;3621;52.374;13.098;2022-08-23T13:58:11;33.00;43.40
7159;DHT22;3621;52.374;13.098;2022-08-23T14:00:38;32.90;43.40
7159;DHT22;3621;52.374;13.098;2022-08-23T14:03:07;32.80;43.30
7159;DHT22;3621;52.374;13.098;2022-08-23T14:05:34;32.70;43.40
7159;DHT22;3621;52.374;13.098;2022-08-23T14:08:01;32.70;43.70
7159;DHT22;3621;52.374;13.098;2022-08-23T14:10:28;32.80;44.00
7159;DHT22;3621;52.374;13.098;2022-08-23T14:12:55;33.00;44.20
7159;DHT22;3621;52.374;13.098;2022-08-23T14:15:22;33.20;43.60
7159;DHT22;3621;52.374;13.098;2022-08-23T14:17:51;33.20;43.40
7159;DHT22;3621;52.374;13.098;2022-08-23T14:20:22;33.30;43.40
7159;DHT22;3621;52.374;13.098;2022-08-23T14:22:49;33.30;43.60
7159;DHT22;3621;52.374;13.098;2022-08-23T14:25:16;33.50;43.30
7159;DHT22;3621;52.374;13.098;2022-08-23T14:27:45;33.60;42.90
7159;DHT22;3621;52.374;13.098;2022-08-23T14:30:23;33.90;42.70
7159;DHT22;3621;52.374;13.098;2022-08-23T14:32:51;34.40;42.10
7159;DHT22;3621;52.374;13.098;2022-08-23T14:35:19;34.80;41.30
7159;DHT22;3621;52.374;13.098;2022-08-23T14:37:47;35.20;40.70
7159;DHT22;3621;52.374;13.098;2022-08-23T14:40:14;35.40;40.20
7159;DHT22;3621;52.374;13.098;2022-08-23T14:42:41;35.40;40.10
7159;DHT22;3621;52.374;13.098;2022-08-23T14:45:10;35.10;40.00
7159;DHT22;3621;52.374;13.098;2022-08-23T14:47:37;34.80;40.10
7159;DHT22;3621;52.374;13.098;2022-08-23T14:50:05;34.40;40.40
7159;DHT22;3621;52.374;13.098;2022-08-23T14:52:36;34.00;41.20
7159;DHT22;3621;52.374;13.098;2022-08-23T14:55:04;33.60;41.60
7159;DHT22;3621;52.374;13.098;2022-08-23T14:57:30;33.20;42.50
7159;DHT22;3621;52.374;13.098;2022-08-23T14:59:57;32.90;42.90
7159;DHT22;3621;52.374;13.098;2022-08-23T15:02:25;32.60;42.80
7159;DHT22;3621;52.374;13.098;2022-08-23T15:04:53;32.30;43.30
7159;DHT22;3621;52.374;13.098;2022-08-23T15:07:21;32.20;43.80
7159;DHT22;3621;52.374;13.098;2022-08-23T15:09:51;32.10;44.00
7159;DHT22;3621;52.374;13.098;2022-08-23T15:12:19;32.00;44.40
7159;DHT22;3621;52.374;13.098;2022-08-23T15:14:46;32.00;44.60
7159;DHT22;3621;52.374;13.098;2022-08-23T15:17:13;32.00;44.70
7159;DHT22;3621;52.374;13.098;2022-08-23T15:19:40;31.90;44.90
7159;DHT22;3621;52.374;13.098;2022-08-23T15:22:07;31.80;45.30
7159;DHT22;3621;52.374;13.098;2022-08-23T15:24:34;31.70;45.00
7159;DHT22;3621;52.374;13.098;2022-08-23T15:27:02;31.70;45.40
7159;DHT22;3621;52.374;13.098;2022-08-23T15:29:29;31.60;44.30
7159;DHT22;3621;52.374;13.098;2022-08-23T15:31:56;31.60;44.20
7159;DHT22;3621;52.374;13.098;2022-08-23T15:34:23;31.60;44.10
7159;DHT22;3621;52.374;13.098;2022-08-23T15:36:50;31.50;44.40
7159;DHT22;3621;52.374;13.098;2022-08-23T15:39:17;31.40;44.20
7159;DHT22;3621;52.374;13.098;2022-08-23T15:41:44;31.30;44.10
7159;DHT22;3621;52.374;13.098;2022-08-23T15:44:12;31.20;44.40
7159;DHT22;3621;52.374;13.098;2022-08-23T15:46:39;31.00;44.50
7159;DHT22;3621;52.374;13.098;2022-08-23T15:49:13;30.90;44.80
7159;DHT22;3621;52.374;13.098;2022-08-23T15:51:40;30.70;44.70
7159;DHT22;3621;52.374;13.098;2022-08-23T15:54:08;30.50;44.90
7159;DHT22;3621;52.374;13.098;2022-08-23T15:56:40;30.40;45.50
7159;DHT22;3621;52.374;13.098;2022-08-23T15:59:11;30.20;46.10
7159;DHT22;3621;52.374;13.098;2022-08-23T16:01:39;30.00;46.30
7159;DHT22;3621;52.374;13.098;2022-08-23T16:04:06;29.90;46.90
7159;DHT22;3621;52.374;13.098;2022-08-23T16:06:34;29.80;47.70
7159;DHT22;3621;52.374;13.098;2022-08-23T16:09:02;29.80;48.10
7159;DHT22;3621;52.374;13.098;2022-08-23T16:11:29;29.70;48.70
7159;DHT22;3621;52.374;13.098;2022-08-23T16:13:56;29.60;49.10
7159;DHT22;3621;52.374;13.098;2022-08-23T16:16:28;29.60;49.50
7159;DHT22;3621;52.374;13.098;2022-08-23T16:18:56;29.50;49.50
7159;DHT22;3621;52.374;13.098;2022-08-23T16:21:25;29.50;49.80